UTC: 03.03.2021 05:36:00
ilmateenistus.ee keskkonnaagentuur.ee
EETN Tallinn
FTEO31 EETN 030500
TAF EETN 030530Z 0306/0406 26012KT 9999 SCT040 TEMPO 0316/0320 BKN015
    SCT020CB PROB40 TEMPO 0320/0323 3000 SHRASN BKN010 SCT015CB BECMG
    0322/0324 33012KT=

METAR EETN 030520Z 24006KT CAVOK M00/M02 Q1020 R08/19//95 NOSIG=
Tallinn
EEKA Kärdla
FCEO32 EETN 030300
TAF EEKA 030300Z 0304/0310 26010KT 9999 BKN030 PROB40 TEMPO 0304/0310
    3000 BR=

METAR EEKA 030520Z 24004KT 170V290 CAVOK 03/M01 Q1022=
Kärdla
EEKE Kuressaare
FCEO32 EETN 030400
TAF EEKE 030400Z 0305/0311 26010KT 9999 BKN040 TEMPO 0309/0311
    25014G28KT=

METAR EEKE 030520Z 26004KT 170V300 SCT050 01/01 Q1023 R17/190095=
Kuressaare
EEPU Pärnu
METAR EEPU 030520Z NIL=
Pärnu
EETU Tartu
METAR EETU 030520Z AUTO 26012KT 9999 NCD M01/M03 Q1021=
Tartu
EEEI Ämari
METAR EEEI 030450Z 23006KT CAVOK 00/M02 Q1021 R24/090095 NOSIG=
Ämari